KHJH

Hebron Municipal Airport

Hebron, Nebraska, USA
METAR KHJH 230955Z AUTO 00000KT 10SM CLR 05/01 A3029 RMK AO2 T00510005
Observed Flight Rules
Oct-23 @ 09:55 UTC (21 minutes ago) Visual Flight Rules
Visibility Clouds
10 miles
  • Clear skies
Temperatures Readings
Current 5°C / 41°F
Dewpoint 1°C / 34°F
Humidity 76%
Altimeter 30.29" Hg
Pressure 1026 hPa
Elevation 447
METAR KHJH 230955Z AUTO 00000KT 10SM CLR 05/01 A3029 RMK AO2 T00510005
Observed Flight Rules
Oct-23 @ 09:55 UTC
(21 minutes ago)
VFR
Clouds
  • Clear skies
Temperature Dewpoint
5°C / 41°F 1°C / 34°F
Humidity Altimeter Pressure
76% 30.29" Hg 1026 hPa